Time;durP1;ratioP1;P1;durP2;ratioP2;P2;SDS_P1;SDS_P2;PMS_P1;PMS_P2;Temp;Humidity;BMP_temperature;BMP_pressure;BME280_temperature;BME280_humidity;BME280_pressure;Samples;Min_cycle;Max_cycle;Signal;HPM_P1;HPM_P2
2023/01/01 00:00:06;;;;;;;21.63;11.03;;;;;;;2.23;nan;-23878.16;5017377;28;20259;-69
2023/01/01 00:02:32;;;;;;;21.90;10.27;;;;;;;2.05;nan;-23873.03;5017471;28;20193;-70
2023/01/01 00:04:58;;;;;;;19.63;11.10;;;;;;;1.84;nan;-23867.19;5018216;28;20219;-70
2023/01/01 00:07:23;;;;;;;25.90;11.63;;;;;;;2.30;nan;-23880.16;5018020;28;20187;-69
2023/01/01 00:12:33;;;;;;;19.47;10.37;;;;;;;1.92;nan;-23869.31;5017169;28;20234;-70
2023/01/01 00:14:58;;;;;;;31.10;13.60;;;;;;;1.73;nan;-23864.16;5016780;28;20187;-71
2023/01/01 00:17:24;;;;;;;19.23;11.90;;;;;;;2.19;nan;-23877.16;5018018;28;20175;-71
2023/01/01 00:19:49;;;;;;;19.53;11.10;;;;;;;1.51;nan;-23857.75;5019727;28;20184;-70
2023/01/01 00:22:15;;;;;;;22.53;11.13;;;;;;;1.89;nan;-23868.47;5021944;28;20191;-70
2023/01/01 00:24:40;;;;;;;41.53;11.70;;;;;;;1.62;nan;-23861.03;5022543;28;20176;-70
2023/01/01 00:27:05;;;;;;;26.37;12.47;;;;;;;1.66;nan;-23862.19;5021635;28;20225;-70
2023/01/01 00:29:31;;;;;;;26.07;11.77;;;;;;;1.97;nan;-23870.88;5022122;28;20180;-70
2023/01/01 00:31:56;;;;;;;20.57;11.50;;;;;;;2.13;nan;-23875.31;5021781;28;20194;-70
2023/01/01 00:34:22;;;;;;;27.33;12.33;;;;;;;2.08;nan;-23874.03;5022146;28;20655;-70
2023/01/01 00:36:47;;;;;;;22.73;12.27;;;;;;;2.01;nan;-23872.03;5021829;28;20215;-70
2023/01/01 00:39:13;;;;;;;35.27;11.53;;;;;;;1.70;nan;-23863.31;5021534;28;20202;-71
2023/01/01 00:41:38;;;;;;;21.50;11.73;;;;;;;1.93;nan;-23869.59;5021720;28;20244;-70
2023/01/01 00:44:04;;;;;;;15.27;9.30;;;;;;;1.92;nan;-23869.31;5021655;28;20186;-70
2023/01/01 00:46:29;;;;;;;22.33;9.73;;;;;;;1.81;nan;-23866.16;5021585;28;20208;-70
2023/01/01 00:48:55;;;;;;;17.30;9.90;;;;;;;1.80;nan;-23866.03;5020907;28;20194;-70
2023/01/01 00:51:20;;;;;;;19.20;10.57;;;;;;;1.43;nan;-23855.59;5021788;28;20184;-70
2023/01/01 00:53:45;;;;;;;26.20;14.97;;;;;;;1.81;nan;-23866.16;5021059;28;20222;-71
2023/01/01 00:56:11;;;;;;;23.13;10.60;;;;;;;1.37;nan;-23853.88;5017752;28;20188;-70
2023/01/01 00:58:36;;;;;;;23.10;9.90;;;;;;;1.39;nan;-23854.31;5014632;28;20237;-70
2023/01/01 01:01:02;;;;;;;20.23;10.00;;;;;;;1.30;nan;-23851.88;5015031;28;20191;-70
2023/01/01 01:03:27;;;;;;;24.27;9.93;;;;;;;1.51;nan;-23857.88;5014273;28;20319;-70
2023/01/01 01:06:08;;;;;;;19.93;11.10;;;;;;;1.76;nan;-23864.88;5014251;28;20203;-70
2023/01/01 01:08:36;;;;;;;20.40;10.17;;;;;;;1.76;nan;-23865.03;5014758;28;20614;-71
2023/01/01 01:11:06;;;;;;;24.40;11.87;;;;;;;1.73;nan;-23864.16;5014175;28;20185;-70
2023/01/01 01:13:31;;;;;;;22.63;10.67;;;;;;;1.43;nan;-23855.47;5014068;28;20565;-70
2023/01/01 01:15:57;;;;;;;24.43;11.30;;;;;;;1.22;nan;-23849.72;5014406;28;20176;-71
2023/01/01 01:18:22;;;;;;;15.87;9.57;;;;;;;1.23;nan;-23849.88;5014436;28;20203;-70
2023/01/01 01:20:50;;;;;;;20.30;9.77;;;;;;;1.41;nan;-23855.03;5014431;28;20217;-71
2023/01/01 01:23:16;;;;;;;22.97;9.27;;;;;;;1.38;nan;-23854.16;5012867;28;20638;-70
2023/01/01 01:25:41;;;;;;;29.07;11.47;;;;;;;1.56;nan;-23859.31;5014397;28;20172;-71
2023/01/01 01:28:06;;;;;;;27.40;10.30;;;;;;;1.54;nan;-23858.59;5014372;28;20186;-70
2023/01/01 01:30:32;;;;;;;23.67;9.73;;;;;;;1.51;nan;-23857.75;5013386;28;20511;-71
2023/01/01 01:32:57;;;;;;;22.43;8.70;;;;;;;1.44;nan;-23855.88;5014061;28;20204;-70
2023/01/01 01:35:22;;;;;;;21.90;10.63;;;;;;;1.07;nan;-23845.44;5014083;28;20253;-71
2023/01/01 01:37:48;;;;;;;14.53;9.30;;;;;;;1.09;nan;-23845.88;5013912;28;20294;-70
2023/01/01 01:40:16;;;;;;;18.07;10.40;;;;;;;1.49;nan;-23857.31;5014538;28;20179;-70
2023/01/01 01:42:45;;;;;;;21.73;9.47;;;;;;;0.98;nan;-23842.72;5013989;28;20179;-70
2023/01/01 01:45:10;;;;;;;22.87;8.90;;;;;;;0.98;nan;-23842.88;5013636;28;20198;-71
2023/01/01 01:47:36;;;;;;;15.23;7.50;;;;;;;1.53;nan;-23858.31;5013838;28;20172;-70
2023/01/01 01:50:04;;;;;;;19.10;8.80;;;;;;;1.03;nan;-23844.31;5013784;28;20517;-71
2023/01/01 01:52:31;;;;;;;26.27;9.03;;;;;;;1.18;nan;-23848.44;5013788;28;20653;-70
2023/01/01 01:55:00;;;;;;;20.50;9.27;;;;;;;1.45;nan;-23856.03;5013642;28;20268;-71
2023/01/01 01:57:26;;;;;;;19.70;10.80;;;;;;;1.54;nan;-23858.75;5013658;28;20194;-70
2023/01/01 01:59:55;;;;;;;22.17;10.43;;;;;;;1.47;nan;-23856.59;5013516;28;20211;-70
2023/01/01 02:02:37;;;;;;;21.67;10.57;;;;;;;0.87;nan;-23839.88;5014000;28;20172;-71
2023/01/01 02:05:04;;;;;;;24.57;10.27;;;;;;;1.54;nan;-23858.59;5013635;28;20691;-71
2023/01/01 02:07:32;;;;;;;22.43;10.07;;;;;;;1.63;nan;-23861.16;5013760;28;20215;-70
2023/01/01 02:09:59;;;;;;;20.00;9.80;;;;;;;1.31;nan;-23852.16;5013615;28;20186;-71
2023/01/01 02:12:27;;;;;;;33.73;9.47;;;;;;;1.75;nan;-23864.59;5013264;28;20203;-70
2023/01/01 02:14:53;;;;;;;21.97;10.80;;;;;;;1.70;nan;-23863.31;5013602;28;20258;-70
2023/01/01 02:17:28;;;;;;;16.57;9.33;;;;;;;1.87;nan;-23868.03;5013558;28;20175;-71
2023/01/01 02:20:02;;;;;;;27.33;9.47;;;;;;;1.84;nan;-23867.19;5013373;28;20202;-71
2023/01/01 02:23:14;;;;;;;21.63;11.03;;;;;;;1.78;nan;-23865.47;5011911;28;20180;-70
2023/01/01 02:26:14;;;;;;;20.87;10.47;;;;;;;1.75;nan;-23864.75;5012695;28;20189;-71
2023/01/01 02:28:42;;;;;;;17.00;9.03;;;;;;;1.64;nan;-23861.47;5013500;28;20582;-70
2023/01/01 02:31:11;;;;;;;33.70;9.90;;;;;;;1.19;nan;-23848.88;5013686;28;20179;-70
2023/01/01 02:33:36;;;;;;;23.40;9.60;;;;;;;1.47;nan;-23856.59;5013038;28;20223;-71
2023/01/01 02:36:03;;;;;;;19.73;9.80;;;;;;;1.21;nan;-23849.44;5012950;28;20612;-71
2023/01/01 02:38:35;;;;;;;16.27;8.63;;;;;;;1.10;nan;-23846.16;5013181;28;20183;-70
2023/01/01 02:41:05;;;;;;;22.53;9.20;;;;;;;1.60;nan;-23860.31;5012737;28;20175;-70
2023/01/01 02:43:31;;;;;;;18.17;8.67;;;;;;;1.18;nan;-23848.44;5012463;28;20257;-70
2023/01/01 02:45:56;;;;;;;18.47;9.77;;;;;;;1.15;nan;-23847.59;5013145;28;20659;-70
2023/01/01 02:48:42;;;;;;;25.73;9.57;;;;;;;1.48;nan;-23857.03;5012799;28;20212;-71
2023/01/01 02:51:33;;;;;;;26.70;9.63;;;;;;;1.39;nan;-23854.31;5012652;28;20262;-71
2023/01/01 02:54:11;;;;;;;19.80;8.30;;;;;;;1.41;nan;-23854.88;5011259;28;20637;-70
2023/01/01 02:56:42;;;;;;;19.50;9.07;;;;;;;-0.05;nan;-23813.69;5012603;28;20252;-70
2023/01/01 03:02:45;;;;;;;30.43;9.60;;;;;;;1.31;nan;-23852.16;5013117;28;20247;-71
2023/01/01 03:05:16;;;;;;;28.97;13.07;;;;;;;1.33;nan;-23852.75;5012629;28;20595;-71
2023/01/01 03:07:51;;;;;;;31.77;11.67;;;;;;;1.32;nan;-23852.59;5012429;28;20178;-70
2023/01/01 03:10:28;;;;;;;22.03;10.83;;;;;;;0.92;nan;-23841.00;5012849;28;20205;-70
2023/01/01 03:13:09;;;;;;;32.50;11.93;;;;;;;0.96;nan;-23842.16;5012007;28;20748;-70
2023/01/01 03:15:59;;;;;;;20.57;9.77;;;;;;;0.98;nan;-23842.72;5012513;28;20650;-70
2023/01/01 03:18:47;;;;;;;27.40;10.60;;;;;;;1.13;nan;-23847.03;5013028;28;20215;-71
2023/01/01 03:21:16;;;;;;;22.20;10.07;;;;;;;1.22;nan;-23849.72;5014485;28;20275;-70
2023/01/01 03:23:48;;;;;;;20.27;9.10;;;;;;;0.86;nan;-23839.44;5012110;28;20228;-70
2023/01/01 03:26:16;;;;;;;26.00;10.20;;;;;;;1.05;nan;-23844.88;5012177;28;20169;-71
2023/01/01 03:28:49;;;;;;;26.40;10.13;;;;;;;0.82;nan;-23838.44;5014027;28;20183;-70
2023/01/01 03:31:19;;;;;;;26.23;10.30;;;;;;;0.76;nan;-23836.56;5013994;28;20215;-71
2023/01/01 03:33:51;;;;;;;21.43;8.47;;;;;;;0.75;nan;-23836.44;5011855;28;20203;-71
2023/01/01 03:36:26;;;;;;;21.37;10.63;;;;;;;0.81;nan;-23838.00;5011996;28;20176;-70
2023/01/01 03:39:07;;;;;;;25.63;12.03;;;;;;;0.76;nan;-23836.56;5012011;28;20275;-70
2023/01/01 03:41:57;;;;;;;17.47;9.93;;;;;;;1.28;nan;-23851.44;5012596;28;20179;-70
2023/01/01 03:44:26;;;;;;;22.20;11.47;;;;;;;1.27;nan;-23851.03;5012119;28;20515;-71
2023/01/01 03:46:52;;;;;;;18.13;10.17;;;;;;;1.14;nan;-23847.44;5012142;28;20230;-70
2023/01/01 03:49:19;;;;;;;20.20;10.40;;;;;;;1.26;nan;-23850.88;5011806;28;20175;-70
2023/01/01 03:52:05;;;;;;;21.50;11.30;;;;;;;1.26;nan;-23850.88;5012091;28;20267;-70
2023/01/01 03:54:44;;;;;;;15.47;8.90;;;;;;;1.21;nan;-23849.31;5013731;28;20187;-70
2023/01/01 03:57:27;;;;;;;16.43;8.83;;;;;;;1.12;nan;-23846.72;5016209;28;20199;-70
2023/01/01 04:00:15;;;;;;;22.73;8.90;;;;;;;1.17;nan;-23848.16;5016344;28;20178;-71
2023/01/01 04:03:02;;;;;;;24.33;10.03;;;;;;;1.18;nan;-23848.59;5015355;28;20186;-70
2023/01/01 04:05:29;;;;;;;31.40;11.77;;;;;;;0.71;nan;-23835.28;5016105;28;20224;-70
2023/01/01 04:07:55;;;;;;;16.37;10.57;;;;;;;0.90;nan;-23840.59;5020734;28;20191;-71
2023/01/01 04:10:23;;;;;;;16.93;10.03;;;;;;;1.01;nan;-23843.59;5015951;28;20223;-70
2023/01/01 04:12:55;;;;;;;16.73;9.87;;;;;;;1.18;nan;-23848.44;5016029;28;20199;-71
2023/01/01 04:15:25;;;;;;;24.33;8.77;;;;;;;1.12;nan;-23846.72;5015634;28;20180;-70
2023/01/01 04:17:51;;;;;;;24.03;9.97;;;;;;;0.78;nan;-23837.28;5015635;28;20174;-69
2023/01/01 04:20:17;;;;;;;18.00;9.23;;;;;;;1.18;nan;-23848.44;5015263;28;20168;-69
2023/01/01 04:22:43;;;;;;;19.93;10.80;;;;;;;0.98;nan;-23842.72;5015248;28;20581;-70
2023/01/01 04:25:10;;;;;;;24.97;10.90;;;;;;;0.78;nan;-23837.28;5016022;28;20176;-69
2023/01/01 04:27:36;;;;;;;28.60;10.93;;;;;;;0.94;nan;-23841.59;5015169;28;20176;-69
2023/01/01 04:30:03;;;;;;;23.60;11.50;;;;;;;0.73;nan;-23835.88;5015579;28;20650;-69
2023/01/01 04:32:29;;;;;;;28.97;10.40;;;;;;;0.61;nan;-23832.44;5015614;28;20188;-69
2023/01/01 04:34:54;;;;;;;28.40;13.10;;;;;;;1.00;nan;-23843.31;5020158;28;20187;-69
2023/01/01 04:37:20;;;;;;;19.80;10.27;;;;;;;0.57;nan;-23831.13;5015567;28;20290;-69
2023/01/01 04:39:45;;;;;;;17.93;9.20;;;;;;;0.62;nan;-23832.72;5015165;28;20176;-69
2023/01/01 04:42:11;;;;;;;20.80;9.47;;;;;;;0.48;nan;-23828.56;5015169;28;20569;-70
2023/01/01 04:44:36;;;;;;;18.47;10.70;;;;;;;0.83;nan;-23838.59;5014978;28;20176;-69
2023/01/01 04:47:02;;;;;;;21.37;9.53;;;;;;;0.64;nan;-23833.28;5015033;28;20290;-69
2023/01/01 04:49:27;;;;;;;25.80;9.73;;;;;;;0.68;nan;-23834.44;5015036;28;20183;-70
2023/01/01 04:51:53;;;;;;;16.80;8.13;;;;;;;1.02;nan;-23844.00;5015349;28;20698;-69
2023/01/01 04:54:18;;;;;;;18.10;8.97;;;;;;;1.08;nan;-23845.59;5015323;28;20246;-70
2023/01/01 04:56:43;;;;;;;18.23;8.53;;;;;;;1.01;nan;-23843.59;5015593;28;20256;-69
2023/01/01 04:59:09;;;;;;;22.17;10.17;;;;;;;0.70;nan;-23835.00;5014652;28;20652;-69
2023/01/01 05:01:34;;;;;;;20.20;8.97;;;;;;;0.54;nan;-23830.28;5015243;28;20174;-69
2023/01/01 05:04:00;;;;;;;26.50;11.90;;;;;;;0.49;nan;-23829.00;5013167;28;20231;-69
2023/01/01 05:06:27;;;;;;;29.83;13.57;;;;;;;0.78;nan;-23837.16;5013981;28;20610;-70
2023/01/01 05:08:54;;;;;;;31.20;9.93;;;;;;;0.71;nan;-23835.28;5013196;28;20200;-70
2023/01/01 05:11:25;;;;;;;21.53;10.07;;;;;;;0.24;nan;-23821.84;5014449;28;20674;-69
2023/01/01 05:13:52;;;;;;;21.83;10.70;;;;;;;0.62;nan;-23832.56;5014748;28;20205;-70
2023/01/01 05:16:20;;;;;;;16.53;8.93;;;;;;;0.66;nan;-23833.72;5014643;28;20263;-70
2023/01/01 05:18:47;;;;;;;21.13;10.73;;;;;;;0.50;nan;-23829.13;5014323;28;20182;-70
2023/01/01 05:21:16;;;;;;;23.93;10.87;;;;;;;0.65;nan;-23833.56;5014565;28;20179;-70
2023/01/01 05:23:41;;;;;;;18.87;10.33;;;;;;;0.69;nan;-23834.56;5014268;28;20190;-70
2023/01/01 05:26:09;;;;;;;22.20;10.17;;;;;;;0.57;nan;-23831.13;5014106;28;20555;-70
2023/01/01 05:28:35;;;;;;;32.80;11.60;;;;;;;0.29;nan;-23823.28;5014119;28;20168;-70
2023/01/01 05:31:08;;;;;;;24.73;10.37;;;;;;;0.22;nan;-23821.25;5014507;28;20238;-70
2023/01/01 05:33:34;;;;;;;24.30;11.43;;;;;;;0.12;nan;-23818.53;5014466;28;20211;-71
2023/01/01 05:36:00;;;;;;;22.20;11.27;;;;;;;0.13;nan;-23818.84;5014287;28;20179;-70
2023/01/01 05:38:25;;;;;;;19.77;9.13;;;;;;;0.31;nan;-23823.84;5013961;28;20272;-70
2023/01/01 05:40:51;;;;;;;21.43;8.20;;;;;;;0.10;nan;-23817.81;5014496;28;20228;-70
2023/01/01 05:43:16;;;;;;;16.00;8.60;;;;;;;0.02;nan;-23815.69;5014655;28;20185;-70
2023/01/01 05:45:43;;;;;;;15.07;7.63;;;;;;;0.20;nan;-23820.69;5014165;28;20179;-70
2023/01/01 05:48:09;;;;;;;18.73;9.23;;;;;;;-0.34;nan;-23805.50;5014069;28;20163;-70
2023/01/01 05:50:34;;;;;;;18.00;9.07;;;;;;;0.39;nan;-23826.13;5013973;28;20179;-70
2023/01/01 05:52:59;;;;;;;12.57;8.30;;;;;;;0.48;nan;-23828.56;5013386;28;20698;-69
2023/01/01 05:55:25;;;;;;;23.43;9.47;;;;;;;0.47;nan;-23828.28;5014481;28;20193;-70
2023/01/01 05:57:50;;;;;;;15.87;9.40;;;;;;;0.06;nan;-23816.69;5013534;28;20183;-70
2023/01/01 06:00:16;;;;;;;17.80;9.17;;;;;;;0.54;nan;-23830.44;5013534;28;20239;-70
2023/01/01 06:02:41;;;;;;;18.90;8.97;;;;;;;0.10;nan;-23817.81;5013755;28;20190;-71
2023/01/01 06:05:07;;;;;;;17.33;8.53;;;;;;;0.58;nan;-23831.56;5013253;28;20226;-69
2023/01/01 06:07:32;;;;;;;26.17;9.13;;;;;;;0.24;nan;-23821.97;5045113;28;20223;-70
2023/01/01 06:09:58;;;;;;;20.43;10.60;;;;;;;0.30;nan;-23823.56;5013947;28;20175;-70
2023/01/01 06:12:23;;;;;;;25.80;11.40;;;;;;;0.29;nan;-23823.41;5012988;28;20645;-70
2023/01/01 06:14:48;;;;;;;23.50;11.10;;;;;;;0.78;nan;-23837.16;5013752;28;20262;-70
2023/01/01 06:17:14;;;;;;;28.70;10.20;;;;;;;0.36;nan;-23825.41;5012741;28;20171;-69
2023/01/01 06:19:39;;;;;;;27.30;11.07;;;;;;;0.84;nan;-23838.88;5013531;28;20470;-70
2023/01/01 06:22:04;;;;;;;23.40;11.50;;;;;;;0.77;nan;-23837.00;5013648;28;20234;-69
2023/01/01 06:24:30;;;;;;;26.17;11.43;;;;;;;0.98;nan;-23842.88;5013093;28;20171;-70
2023/01/01 06:26:55;;;;;;;14.87;8.97;;;;;;;1.12;nan;-23846.72;5013374;28;20519;-70
2023/01/01 06:29:21;;;;;;;18.37;8.67;;;;;;;0.86;nan;-23839.44;5013209;28;20214;-70
2023/01/01 06:31:46;;;;;;;22.40;9.37;;;;;;;1.39;nan;-23854.44;5013133;28;20180;-70
2023/01/01 06:34:12;;;;;;;16.27;8.13;;;;;;;1.04;nan;-23844.44;5013108;28;20689;-70
2023/01/01 06:36:37;;;;;;;20.87;9.47;;;;;;;1.62;nan;-23860.88;5013157;28;20172;-70
2023/01/01 06:39:03;;;;;;;18.37;9.57;;;;;;;1.25;nan;-23850.44;5012890;28;20259;-71
2023/01/01 06:41:29;;;;;;;17.57;8.10;;;;;;;1.61;nan;-23860.75;5013091;28;20603;-70
2023/01/01 06:43:56;;;;;;;14.00;8.67;;;;;;;1.80;nan;-23865.88;5013066;28;20262;-70
2023/01/01 06:46:27;;;;;;;27.10;8.77;;;;;;;1.65;nan;-23861.88;5011761;28;20176;-70
2023/01/01 06:48:55;;;;;;;12.70;6.73;;;;;;;2.28;nan;-23879.44;5013641;28;20187;-71
2023/01/01 06:51:26;;;;;;;9.83;6.27;;;;;;;2.02;nan;-23872.16;5012609;28;20206;-70
2023/01/01 06:53:52;;;;;;;16.77;7.80;;;;;;;2.21;nan;-23877.59;5012682;28;20199;-70
2023/01/01 06:56:19;;;;;;;13.60;8.27;;;;;;;2.16;nan;-23876.31;5012711;28;20172;-70
2023/01/01 06:58:45;;;;;;;15.07;7.53;;;;;;;2.52;nan;-23886.44;5012546;28;20563;-71
2023/01/01 07:01:12;;;;;;;14.33;7.63;;;;;;;2.85;nan;-23895.72;5012671;28;20187;-70
2023/01/01 07:03:38;;;;;;;14.30;8.70;;;;;;;2.56;nan;-23887.59;5012464;28;20274;-70
2023/01/01 07:06:06;;;;;;;14.57;6.87;;;;;;;2.98;nan;-23899.28;5012936;28;20180;-70
2023/01/01 07:08:31;;;;;;;19.93;8.53;;;;;;;3.05;nan;-23901.44;5012399;28;20183;-70
2023/01/01 07:10:57;;;;;;;14.73;8.33;;;;;;;3.07;nan;-23902.00;5012625;28;20176;-70
2023/01/01 07:13:27;;;;;;;13.23;6.90;;;;;;;3.01;nan;-23900.16;5012311;28;20710;-71
2023/01/01 07:15:53;;;;;;;17.67;8.20;;;;;;;2.85;nan;-23895.72;5012799;28;20183;-71
2023/01/01 07:18:20;;;;;;;11.70;7.27;;;;;;;3.36;nan;-23910.13;5012708;28;20184;-71
2023/01/01 07:20:54;;;;;;;13.10;8.33;;;;;;;3.47;nan;-23913.13;5012193;28;20187;-70
2023/01/01 07:23:19;;;;;;;15.10;7.83;;;;;;;3.34;nan;-23909.41;5012423;28;20207;-70
2023/01/01 07:25:47;;;;;;;20.13;10.20;;;;;;;3.74;nan;-23920.69;5012222;28;20266;-71
2023/01/01 07:28:12;;;;;;;20.10;9.77;;;;;;;3.44;nan;-23912.25;5012137;28;20187;-71
2023/01/01 07:30:38;;;;;;;17.90;10.30;;;;;;;3.89;nan;-23924.94;5012587;28;20178;-70
2023/01/01 07:33:03;;;;;;;22.80;11.23;;;;;;;3.72;nan;-23920.09;5012206;28;20257;-71
2023/01/01 07:35:28;;;;;;;23.90;11.20;;;;;;;3.88;nan;-23924.81;5012124;28;20172;-73
2023/01/01 07:37:54;;;;;;;21.30;10.57;;;;;;;4.28;nan;-23936.06;5012046;28;20172;-71
2023/01/01 07:40:19;;;;;;;25.83;10.53;;;;;;;4.33;nan;-23937.47;5018020;28;20259;-71
2023/01/01 07:42:45;;;;;;;19.20;9.77;;;;;;;4.30;nan;-23936.50;5018618;28;20192;-70
2023/01/01 07:45:12;;;;;;;15.83;9.10;;;;;;;4.26;nan;-23935.50;5018544;28;20579;-70
2023/01/01 07:47:38;;;;;;;15.73;7.67;;;;;;;4.42;nan;-23940.03;5018536;28;20615;-70
2023/01/01 07:50:03;;;;;;;18.87;10.30;;;;;;;4.86;nan;-23952.44;5018241;28;20198;-73
2023/01/01 07:52:29;;;;;;;15.73;8.37;;;;;;;4.84;nan;-23951.72;5018453;28;20172;-70
2023/01/01 07:54:54;;;;;;;16.30;7.87;;;;;;;4.78;nan;-23950.16;5018658;28;20238;-70
2023/01/01 07:57:20;;;;;;;12.77;7.97;;;;;;;4.68;nan;-23947.31;5019109;28;20258;-70
2023/01/01 07:59:45;;;;;;;17.00;9.53;;;;;;;5.15;nan;-23960.41;5018353;28;20184;-70
2023/01/01 08:02:11;;;;;;;22.17;8.73;;;;;;;5.23;nan;-23962.81;5017881;28;20196;-70
2023/01/01 08:04:37;;;;;;;17.67;9.97;;;;;;;5.07;nan;-23958.13;5017991;28;20219;-70
2023/01/01 08:07:03;;;;;;;24.30;10.23;;;;;;;5.25;nan;-23963.38;5017514;28;20221;-70
2023/01/01 08:09:28;;;;;;;20.53;10.13;;;;;;;5.56;nan;-23971.91;5014849;28;20552;-71
2023/01/01 08:11:57;;;;;;;16.13;8.97;;;;;;;5.57;nan;-23972.19;5018178;28;20237;-71
2023/01/01 08:14:23;;;;;;;20.93;9.70;;;;;;;5.37;nan;-23966.50;5032087;28;20217;-72
2023/01/01 08:16:48;;;;;;;14.73;8.37;;;;;;;5.43;nan;-23968.22;5018590;28;20219;-71
2023/01/01 08:19:14;;;;;;;16.93;7.63;;;;;;;5.76;nan;-23977.59;5017697;28;20658;-71
2023/01/01 08:21:39;;;;;;;14.17;8.33;;;;;;;6.04;nan;-23985.41;5018849;28;20188;-71
2023/01/01 08:24:05;;;;;;;19.73;8.07;;;;;;;6.14;nan;-23988.41;5018024;28;20180;-72
2023/01/01 08:26:33;;;;;;;16.73;8.47;;;;;;;6.20;nan;-23989.97;5018233;28;20191;-71
2023/01/01 08:29:02;;;;;;;17.47;9.30;;;;;;;5.96;nan;-23983.28;5018394;28;20270;-71
2023/01/01 08:31:27;;;;;;;16.03;8.00;;;;;;;6.34;nan;-23993.94;5017302;28;20224;-71
2023/01/01 08:33:53;;;;;;;15.80;9.10;;;;;;;6.38;nan;-23994.94;5016756;28;20229;-71
2023/01/01 08:36:19;;;;;;;17.33;7.83;;;;;;;6.60;nan;-24001.19;5018579;28;20196;-71
2023/01/01 08:38:45;;;;;;;12.00;8.13;;;;;;;6.59;nan;-24001.03;5017865;28;20612;-72
2023/01/01 08:41:11;;;;;;;18.23;8.13;;;;;;;6.28;nan;-23992.09;5020745;28;20678;-72
2023/01/01 08:43:36;;;;;;;14.80;8.20;;;;;;;6.54;nan;-23999.63;5021825;28;20199;-72
2023/01/01 08:46:02;;;;;;;15.77;8.67;;;;;;;6.59;nan;-24000.88;5021671;28;20183;-72
2023/01/01 08:48:27;;;;;;;11.43;7.20;;;;;;;7.10;nan;-24015.34;5022198;28;20695;-72
2023/01/01 08:50:54;;;;;;;11.80;7.70;;;;;;;6.89;nan;-24009.41;5020654;28;20187;-71
2023/01/01 08:53:19;;;;;;;16.67;8.03;;;;;;;7.09;nan;-24014.94;5022161;28;20206;-71
2023/01/01 08:55:53;;;;;;;13.97;8.00;;;;;;;7.58;nan;-24028.53;5021257;28;20540;-71
2023/01/01 08:58:19;;;;;;;12.83;7.50;;;;;;;7.35;nan;-24022.16;5019095;28;20186;-71
2023/01/01 09:00:44;;;;;;;13.07;8.00;;;;;;;7.90;nan;-24037.63;5020703;28;20258;-71
2023/01/01 09:03:09;;;;;;;13.97;7.07;;;;;;;8.05;nan;-24041.72;5020932;28;20211;-71
2023/01/01 09:05:35;;;;;;;15.87;8.20;;;;;;;8.19;nan;-24045.69;5020785;28;20259;-71
2023/01/01 09:08:00;;;;;;;16.70;8.00;;;;;;;7.97;nan;-24039.59;5019939;28;20184;-72
2023/01/01 09:10:26;;;;;;;15.70;7.87;;;;;;;8.35;nan;-24050.22;5020909;28;20181;-72
2023/01/01 09:12:51;;;;;;;16.77;8.80;;;;;;;8.41;nan;-24051.91;5021150;28;20257;-70
2023/01/01 09:15:17;;;;;;;17.83;7.93;;;;;;;8.59;nan;-24057.00;5020806;28;20214;-71
2023/01/01 09:17:42;;;;;;;12.90;7.20;;;;;;;8.54;nan;-24055.59;5021318;28;20282;-70
2023/01/01 09:20:08;;;;;;;15.13;8.52;;;;;;;8.92;nan;-24066.22;5020770;28;20246;-71
2023/01/01 09:22:33;;;;;;;13.90;6.82;;;;;;;9.04;nan;-24069.47;5019179;28;20179;-71
2023/01/01 09:24:59;;;;;;;13.15;6.82;;;;;;;9.25;nan;-24075.53;5020394;28;20547;-70
2023/01/01 09:27:24;;;;;;;15.20;7.25;;;;;;;9.46;nan;-24081.19;5020227;28;20194;-71
2023/01/01 09:29:49;;;;;;;20.20;8.35;;;;;;;9.36;nan;-24078.50;5020376;28;20207;-71
2023/01/01 09:32:15;;;;;;;15.43;8.23;;;;;;;9.71;nan;-24088.41;5020244;28;20266;-70
2023/01/01 09:34:40;;;;;;;17.13;8.70;;;;;;;9.53;nan;-24083.31;5021133;28;20211;-70
2023/01/01 09:37:06;;;;;;;18.73;8.85;;;;;;;9.81;nan;-24090.94;5020349;28;20187;-71
2023/01/01 09:39:31;;;;;;;16.17;7.38;;;;;;;10.02;nan;-24096.88;5020696;28;20179;-71
2023/01/01 09:42:25;;;;;;;14.48;8.10;;;;;;;10.00;nan;-24096.44;5021089;28;20195;-70
2023/01/01 09:44:56;;;;;;;13.95;7.47;;;;;;;10.10;nan;-24099.28;5020531;28;20194;-72
2023/01/01 09:47:53;;;;;;;14.68;8.32;;;;;;;9.87;nan;-24092.63;5020330;28;20603;-71
2023/01/01 09:50:27;;;;;;;13.88;6.97;;;;;;;10.10;nan;-24099.28;5014266;28;20254;-71
2023/01/01 09:52:56;;;;;;;16.50;8.75;;;;;;;10.54;nan;-24111.56;5012731;28;20710;-72
2023/01/01 09:55:33;;;;;;;20.02;8.63;;;;;;;10.56;nan;-24112.13;5018251;28;20194;-71
2023/01/01 09:57:58;;;;;;;17.55;8.10;;;;;;;10.84;nan;-24119.88;5013715;28;20183;-72
2023/01/01 10:00:25;;;;;;;15.98;8.00;;;;;;;10.95;nan;-24122.84;5013652;28;20576;-72
2023/01/01 10:02:53;;;;;;;19.30;7.53;;;;;;;11.01;nan;-24124.69;5013447;28;20176;-71
2023/01/01 10:05:43;;;;;;;17.10;8.13;;;;;;;10.98;nan;-24123.84;5013512;28;20236;-71
2023/01/01 10:08:36;;;;;;;14.90;8.30;;;;;;;11.28;nan;-24132.00;5013937;28;20200;-71
2023/01/01 10:11:13;;;;;;;13.95;7.50;;;;;;;11.27;nan;-24131.88;5014084;28;20180;-71
2023/01/01 10:13:44;;;;;;;16.60;7.43;;;;;;;11.20;nan;-24129.88;5013754;28;20681;-71
2023/01/01 10:16:27;;;;;;;13.68;7.80;;;;;;;11.57;nan;-24140.03;5014149;28;20219;-72
2023/01/01 10:19:19;;;;;;;18.33;8.05;;;;;;;11.64;nan;-24142.00;5012454;28;20265;-71
2023/01/01 10:21:46;;;;;;;18.15;8.95;;;;;;;11.59;nan;-24140.59;5013446;28;20263;-71
2023/01/01 10:24:29;;;;;;;20.15;8.25;;;;;;;11.86;nan;-24148.34;5013386;28;20230;-70
2023/01/01 10:26:56;;;;;;;17.77;7.65;;;;;;;11.68;nan;-24143.13;5013446;28;20164;-70
2023/01/01 10:29:39;;;;;;;18.00;7.50;;;;;;;11.62;nan;-24141.59;5013560;28;20207;-71
2023/01/01 10:32:20;;;;;;;16.75;8.25;;;;;;;12.10;nan;-24154.81;5013334;28;20168;-71
2023/01/01 10:34:47;;;;;;;18.23;8.45;;;;;;;12.16;nan;-24156.66;5012917;28;20213;-71
2023/01/01 10:37:14;;;;;;;17.63;8.30;;;;;;;11.65;nan;-24142.44;5013112;28;20168;-71
2023/01/01 10:39:40;;;;;;;17.65;8.32;;;;;;;11.93;nan;-24150.19;5012892;28;20326;-71
2023/01/01 10:42:06;;;;;;;14.25;8.18;;;;;;;11.85;nan;-24147.94;5013306;28;20172;-72
2023/01/01 10:44:35;;;;;;;20.90;8.98;;;;;;;11.72;nan;-24144.25;5012975;28;20650;-70
2023/01/01 10:47:23;;;;;;;16.98;8.38;;;;;;;12.35;nan;-24161.88;5013163;28;20175;-71
2023/01/01 10:50:06;;;;;;;21.35;8.93;;;;;;;12.08;nan;-24154.25;5012654;28;20176;-72
2023/01/01 10:52:39;;;;;;;19.95;9.70;;;;;;;12.33;nan;-24161.44;5012804;28;20238;-71
2023/01/01 10:55:17;;;;;;;16.80;8.85;;;;;;;12.72;nan;-24172.28;5011541;28;20180;-71
2023/01/01 10:57:42;;;;;;;22.08;10.05;;;;;;;12.91;nan;-24177.34;5012844;28;20283;-71
2023/01/01 11:00:24;;;;;;;16.42;9.38;;;;;;;12.85;nan;-24175.78;5012839;28;20640;-70
2023/01/01 11:03:13;;;;;;;23.10;9.65;;;;;;;12.42;nan;-24163.69;5012750;28;20168;-70
2023/01/01 11:05:38;;;;;;;18.42;8.88;;;;;;;12.30;nan;-24160.59;5012569;28;20172;-71
2023/01/01 11:08:16;;;;;;;17.38;8.65;;;;;;;12.76;nan;-24173.25;5012384;28;20176;-70
2023/01/01 11:10:49;;;;;;;18.02;9.20;;;;;;;12.71;nan;-24171.84;5012698;28;20176;-70
2023/01/01 11:13:19;;;;;;;21.55;9.32;;;;;;;13.01;nan;-24180.28;5012697;28;20195;-70
2023/01/01 11:15:45;;;;;;;18.92;8.60;;;;;;;13.16;nan;-24184.38;5012327;28;20266;-70
2023/01/01 11:18:19;;;;;;;21.38;9.05;;;;;;;13.17;nan;-24184.78;5012415;28;20211;-71
2023/01/01 11:20:51;;;;;;;19.20;9.45;;;;;;;12.83;nan;-24175.22;5012476;28;20180;-70
2023/01/01 11:23:38;;;;;;;17.92;8.55;;;;;;;13.11;nan;-24182.97;5012612;28;20160;-71
2023/01/01 11:26:23;;;;;;;15.05;8.30;;;;;;;13.12;nan;-24183.38;5012406;28;20168;-71
2023/01/01 11:29:00;;;;;;;16.83;8.90;;;;;;;12.95;nan;-24178.59;5011830;28;20167;-70
2023/01/01 11:31:32;;;;;;;15.90;8.90;;;;;;;12.81;nan;-24174.81;5012543;28;20176;-70
2023/01/01 11:33:58;;;;;;;18.33;9.00;;;;;;;12.06;nan;-24153.84;5012211;28;20258;-71
2023/01/01 11:36:32;;;;;;;14.45;7.80;;;;;;;13.24;nan;-24186.75;5012029;28;20168;-70
2023/01/01 11:39:04;;;;;;;15.45;8.02;;;;;;;13.64;nan;-24197.72;5011757;28;20163;-71
2023/01/01 11:41:50;;;;;;;19.00;8.30;;;;;;;13.75;nan;-24200.81;5011583;28;20306;-70
2023/01/01 11:44:32;;;;;;;14.85;7.30;;;;;;;13.99;nan;-24207.41;5011790;28;20279;-69
2023/01/01 11:46:58;;;;;;;12.77;7.28;;;;;;;14.00;nan;-24207.69;5011621;28;20171;-70
2023/01/01 11:49:27;;;;;;;14.07;7.15;;;;;;;13.92;nan;-24205.56;5011686;28;20168;-70
2023/01/01 11:51:53;;;;;;;11.70;6.70;;;;;;;13.78;nan;-24201.63;5011866;28;20643;-71